sensor_id;sensor_type;location;lat;lon;timestamp;pressure;altitude;pressure_sealevel;temperature;humidity
58739;BME280;44512;53.046;18.604;2023-05-23T00:05:05;101609.76;;;18.53;42.79
58739;BME280;44512;53.046;18.604;2023-05-23T00:15:33;101608.24;;;18.39;43.17
58739;BME280;44512;53.046;18.604;2023-05-23T00:26:01;101594.94;;;18.24;43.50
58739;BME280;44512;53.046;18.604;2023-05-23T00:36:29;101593.22;;;18.11;43.91
58739;BME280;44512;53.046;18.604;2023-05-23T00:46:58;101597.33;;;18.02;44.27
58739;BME280;44512;53.046;18.604;2023-05-23T00:57:27;101597.02;;;17.92;44.67
58739;BME280;44512;53.046;18.604;2023-05-23T01:07:55;101601.35;;;17.81;45.06
58739;BME280;44512;53.046;18.604;2023-05-23T01:28:55;101586.01;;;17.55;45.58
58739;BME280;44512;53.046;18.604;2023-05-23T01:39:20;101590.16;;;17.39;45.93
58739;BME280;44512;53.046;18.604;2023-05-23T01:49:49;101569.45;;;17.25;46.39
58739;BME280;44512;53.046;18.604;2023-05-23T02:00:17;101568.94;;;17.10;46.71
58739;BME280;44512;53.046;18.604;2023-05-23T02:10:45;101557.90;;;16.98;47.02
58739;BME280;44512;53.046;18.604;2023-05-23T02:21:13;101555.65;;;16.88;47.34
58739;BME280;44512;53.046;18.604;2023-05-23T02:31:41;101546.73;;;16.75;47.59
58739;BME280;44512;53.046;18.604;2023-05-23T02:42:10;101552.24;;;16.61;47.84
58739;BME280;44512;53.046;18.604;2023-05-23T02:52:38;101552.31;;;16.48;48.08
58739;BME280;44512;53.046;18.604;2023-05-23T03:03:07;101538.29;;;16.38;48.42
58739;BME280;44512;53.046;18.604;2023-05-23T03:13:35;101526.80;;;16.29;48.77
58739;BME280;44512;53.046;18.604;2023-05-23T03:24:04;101532.28;;;16.23;49.20
58739;BME280;44512;53.046;18.604;2023-05-23T03:34:33;101537.36;;;16.19;49.54
58739;BME280;44512;53.046;18.604;2023-05-23T03:45:00;101533.16;;;16.17;49.90
58739;BME280;44512;53.046;18.604;2023-05-23T03:55:30;101530.01;;;16.20;50.15
58739;BME280;44512;53.046;18.604;2023-05-23T04:06:01;101518.43;;;16.24;50.31
58739;BME280;44512;53.046;18.604;2023-05-23T04:16:26;101500.92;;;16.32;50.18
58739;BME280;44512;53.046;18.604;2023-05-23T04:26:54;101499.38;;;16.43;50.31
58739;BME280;44512;53.046;18.604;2023-05-23T04:37:22;101502.27;;;16.54;50.35
58739;BME280;44512;53.046;18.604;2023-05-23T04:47:51;101500.48;;;16.66;50.26
58739;BME280;44512;53.046;18.604;2023-05-23T04:58:19;101499.80;;;16.78;50.09
58739;BME280;44512;53.046;18.604;2023-05-23T05:08:48;101491.50;;;16.91;49.95
58739;BME280;44512;53.046;18.604;2023-05-23T05:19:16;101496.83;;;17.04;49.04
58739;BME280;44512;53.046;18.604;2023-05-23T05:29:44;101492.91;;;17.18;48.53
58739;BME280;44512;53.046;18.604;2023-05-23T05:40:13;101481.85;;;17.32;47.87
58739;BME280;44512;53.046;18.604;2023-05-23T05:50:41;101485.25;;;17.45;47.63
58739;BME280;44512;53.046;18.604;2023-05-23T06:01:09;101479.40;;;17.60;47.25
58739;BME280;44512;53.046;18.604;2023-05-23T06:11:38;101460.72;;;17.76;47.08
58739;BME280;44512;53.046;18.604;2023-05-23T06:22:06;101460.09;;;17.92;46.80
58739;BME280;44512;53.046;18.604;2023-05-23T06:32:35;101453.95;;;18.08;46.62
58739;BME280;44512;53.046;18.604;2023-05-23T06:43:03;101440.21;;;18.27;46.10
58739;BME280;44512;53.046;18.604;2023-05-23T06:53:31;101444.55;;;18.46;45.66
58739;BME280;44512;53.046;18.604;2023-05-23T07:04:00;101426.08;;;18.65;45.47
58739;BME280;44512;53.046;18.604;2023-05-23T07:14:28;101432.34;;;18.84;44.85
58739;BME280;44512;53.046;18.604;2023-05-23T07:24:56;101418.73;;;19.00;44.38
58739;BME280;44512;53.046;18.604;2023-05-23T07:35:24;101413.34;;;19.17;43.80
58739;BME280;44512;53.046;18.604;2023-05-23T07:45:53;101404.97;;;19.36;42.97
58739;BME280;44512;53.046;18.604;2023-05-23T07:56:21;101382.60;;;19.56;42.17
58739;BME280;44512;53.046;18.604;2023-05-23T08:06:49;101387.69;;;19.75;41.95
58739;BME280;44512;53.046;18.604;2023-05-23T08:17:18;101385.90;;;19.98;40.81
58739;BME280;44512;53.046;18.604;2023-05-23T08:27:46;101378.84;;;20.19;40.27
58739;BME280;44512;53.046;18.604;2023-05-23T08:38:14;101378.63;;;20.37;39.22
58739;BME280;44512;53.046;18.604;2023-05-23T08:48:50;101374.80;;;20.55;38.41
58739;BME280;44512;53.046;18.604;2023-05-23T08:59:11;101373.38;;;20.69;38.15
58739;BME280;44512;53.046;18.604;2023-05-23T09:09:40;101368.11;;;20.85;37.89
58739;BME280;44512;53.046;18.604;2023-05-23T09:20:12;101357.30;;;21.00;36.51
58739;BME280;44512;53.046;18.604;2023-05-23T09:30:38;101363.02;;;21.15;35.24
58739;BME280;44512;53.046;18.604;2023-05-23T09:41:04;101349.95;;;21.27;34.70
58739;BME280;44512;53.046;18.604;2023-05-23T09:51:32;101357.27;;;21.39;34.36
58739;BME280;44512;53.046;18.604;2023-05-23T10:02:02;101360.48;;;21.52;34.19
58739;BME280;44512;53.046;18.604;2023-05-23T10:12:42;101358.40;;;21.65;34.05
58739;BME280;44512;53.046;18.604;2023-05-23T10:23:02;101361.54;;;21.73;33.94
58739;BME280;44512;53.046;18.604;2023-05-23T10:33:27;101342.03;;;21.80;33.93
58739;BME280;44512;53.046;18.604;2023-05-23T10:54:23;101336.45;;;22.02;33.83
58739;BME280;44512;53.046;18.604;2023-05-23T11:15:20;101325.70;;;22.32;33.33
58739;BME280;44512;53.046;18.604;2023-05-23T11:25:49;101313.12;;;22.47;32.87
58739;BME280;44512;53.046;18.604;2023-05-23T11:36:16;101323.71;;;22.60;32.25
58739;BME280;44512;53.046;18.604;2023-05-23T11:57:13;101297.59;;;22.78;31.63
58739;BME280;44512;53.046;18.604;2023-05-23T12:07:45;101286.84;;;22.81;31.43
58739;BME280;44512;53.046;18.604;2023-05-23T12:18:11;101280.24;;;22.87;31.19
58739;BME280;44512;53.046;18.604;2023-05-23T12:28:39;101275.61;;;22.93;30.67
58739;BME280;44512;53.046;18.604;2023-05-23T12:39:06;101268.76;;;23.01;30.27
58739;BME280;44512;53.046;18.604;2023-05-23T12:49:35;101269.02;;;23.04;29.71
58739;BME280;44512;53.046;18.604;2023-05-23T13:00:04;101277.61;;;23.08;29.78
58739;BME280;44512;53.046;18.604;2023-05-23T13:10:31;101263.80;;;23.08;30.20
58739;BME280;44512;53.046;18.604;2023-05-23T13:21:00;101265.45;;;23.09;30.74
58739;BME280;44512;53.046;18.604;2023-05-23T13:31:28;101254.41;;;23.09;30.81
58739;BME280;44512;53.046;18.604;2023-05-23T13:41:56;101248.37;;;23.12;31.36
58739;BME280;44512;53.046;18.604;2023-05-23T13:52:24;101247.27;;;23.18;32.03
58739;BME280;44512;53.046;18.604;2023-05-23T14:02:53;101246.75;;;23.26;32.18
58739;BME280;44512;53.046;18.604;2023-05-23T14:13:21;101245.66;;;23.32;31.89
58739;BME280;44512;53.046;18.604;2023-05-23T14:23:49;101240.69;;;23.39;31.81
58739;BME280;44512;53.046;18.604;2023-05-23T14:34:18;101232.12;;;23.46;31.76
58739;BME280;44512;53.046;18.604;2023-05-23T14:50:03;101218.06;;;23.53;31.19
58739;BME280;44512;53.046;18.604;2023-05-23T15:00:31;101201.49;;;23.58;31.02
58739;BME280;44512;53.046;18.604;2023-05-23T15:10:59;101211.97;;;23.61;31.31
58739;BME280;44512;53.046;18.604;2023-05-23T15:21:28;101205.94;;;23.64;30.74
58739;BME280;44512;53.046;18.604;2023-05-23T15:31:56;101202.60;;;23.67;30.44
58739;BME280;44512;53.046;18.604;2023-05-23T15:42:24;101194.59;;;23.71;30.64
58739;BME280;44512;53.046;18.604;2023-05-23T15:52:52;101185.48;;;23.75;30.66
58739;BME280;44512;53.046;18.604;2023-05-23T16:03:21;101184.12;;;23.78;30.75
58739;BME280;44512;53.046;18.604;2023-05-23T16:13:49;101169.71;;;23.81;30.52
58739;BME280;44512;53.046;18.604;2023-05-23T16:24:17;101177.18;;;23.80;30.54
58739;BME280;44512;53.046;18.604;2023-05-23T16:34:46;101168.88;;;23.80;30.51
58739;BME280;44512;53.046;18.604;2023-05-23T16:45:14;101166.95;;;23.81;31.12
58739;BME280;44512;53.046;18.604;2023-05-23T16:55:44;101167.23;;;23.79;31.27
58739;BME280;44512;53.046;18.604;2023-05-23T17:06:11;101171.11;;;23.78;31.55
58739;BME280;44512;53.046;18.604;2023-05-23T17:16:39;101168.90;;;23.75;31.85
58739;BME280;44512;53.046;18.604;2023-05-23T17:27:08;101187.13;;;23.71;32.28
58739;BME280;44512;53.046;18.604;2023-05-23T17:37:36;101194.31;;;23.67;32.53
58739;BME280;44512;53.046;18.604;2023-05-23T17:48:04;101192.38;;;23.62;32.68
58739;BME280;44512;53.046;18.604;2023-05-23T17:58:33;101195.95;;;23.58;32.50
58739;BME280;44512;53.046;18.604;2023-05-23T18:09:01;101199.54;;;23.53;32.35
58739;BME280;44512;53.046;18.604;2023-05-23T18:19:29;101203.95;;;23.49;32.92
58739;BME280;44512;53.046;18.604;2023-05-23T18:29:58;101218.88;;;23.43;33.37
58739;BME280;44512;53.046;18.604;2023-05-23T18:40:26;101220.23;;;23.35;33.54
58739;BME280;44512;53.046;18.604;2023-05-23T18:50:54;101223.55;;;23.27;33.40
58739;BME280;44512;53.046;18.604;2023-05-23T19:01:23;101222.41;;;23.18;33.32
58739;BME280;44512;53.046;18.604;2023-05-23T19:11:51;101229.31;;;23.10;33.03
58739;BME280;44512;53.046;18.604;2023-05-23T19:22:19;101240.59;;;23.04;33.16
58739;BME280;44512;53.046;18.604;2023-05-23T19:32:49;101230.92;;;22.96;33.45
58739;BME280;44512;53.046;18.604;2023-05-23T19:43:16;101225.04;;;22.87;33.54
58739;BME280;44512;53.046;18.604;2023-05-23T19:53:45;101242.97;;;22.80;33.58
58739;BME280;44512;53.046;18.604;2023-05-23T20:04:13;101253.67;;;22.71;33.86
58739;BME280;44512;53.046;18.604;2023-05-23T20:14:41;101257.52;;;22.65;34.54
58739;BME280;44512;53.046;18.604;2023-05-23T20:25:10;101253.30;;;22.52;34.58
58739;BME280;44512;53.046;18.604;2023-05-23T20:35:38;101280.64;;;22.54;35.28
58739;BME280;44512;53.046;18.604;2023-05-23T20:46:06;101271.48;;;22.48;35.97
58739;BME280;44512;53.046;18.604;2023-05-23T20:56:35;101283.02;;;22.40;36.33
58739;BME280;44512;53.046;18.604;2023-05-23T21:07:03;101287.09;;;22.32;36.62
58739;BME280;44512;53.046;18.604;2023-05-23T21:17:32;101285.95;;;22.23;37.17
58739;BME280;44512;53.046;18.604;2023-05-23T21:28:00;101286.98;;;22.17;37.50
58739;BME280;44512;53.046;18.604;2023-05-23T21:38:28;101287.21;;;22.10;37.38
58739;BME280;44512;53.046;18.604;2023-05-23T21:48:57;101299.54;;;22.03;37.03
58739;BME280;44512;53.046;18.604;2023-05-23T21:59:25;101297.79;;;21.92;38.74
58739;BME280;44512;53.046;18.604;2023-05-23T22:09:53;101286.41;;;21.83;40.07
58739;BME280;44512;53.046;18.604;2023-05-23T22:20:22;101290.78;;;21.79;40.69
58739;BME280;44512;53.046;18.604;2023-05-23T22:30:50;101293.48;;;21.74;41.13
58739;BME280;44512;53.046;18.604;2023-05-23T22:41:18;101273.32;;;21.68;41.52
58739;BME280;44512;53.046;18.604;2023-05-23T22:51:47;101275.20;;;21.63;41.94
58739;BME280;44512;53.046;18.604;2023-05-23T23:02:15;101276.24;;;21.56;42.52
58739;BME280;44512;53.046;18.604;2023-05-23T23:12:44;101262.09;;;21.48;42.45
58739;BME280;44512;53.046;18.604;2023-05-23T23:23:12;101253.74;;;21.38;42.79
58739;BME280;44512;53.046;18.604;2023-05-23T23:33:40;101256.34;;;21.27;42.47
58739;BME280;44512;53.046;18.604;2023-05-23T23:44:09;101268.40;;;21.21;42.36
58739;BME280;44512;53.046;18.604;2023-05-23T23:54:37;101255.08;;;21.13;42.12
